Stillwater, Oklahoma
Current Conditions -  °F | °C
As of 6:53 AM on Friday 24 Oct 2014 (Local Time) from KSWO Reporting Station
Clear Clear  
Wind Chill: 57°   Ceiling: Unl
Heat Index: 57°   Visibility: 10mi
Dew Point: 54°   Wind: 8mph
Humidity: 89%   Direction: 160°SSE
Pressure: 30.08"   Gusts: NA
Location:  36.12°N, 97.06°W
Report Text: KSWO 241153Z AUTO 16007KT 10SM CLR 14/12 A3008 RMK AO2 SLP179 T01390122 10156 20139 56001
Loading
Personal Weather Stations






























Interactive Weather Map New forecast layout! Learn more

10-Day Weather Forecast

Advertisements
Track Severe Weather on mobile